sensor_id;sensor_type;location;lat;lon;timestamp;P1;durP1;ratioP1;P2;durP2;ratioP2
13220;SDS011;6675;48.128;11.478;2024-02-21T00:00:43;5.88;;;2.55;;
13220;SDS011;6675;48.128;11.478;2024-02-21T00:03:08;5.68;;;2.38;;
13220;SDS011;6675;48.128;11.478;2024-02-21T00:05:34;5.43;;;2.40;;
13220;SDS011;6675;48.128;11.478;2024-02-21T00:08:00;6.57;;;2.30;;
13220;SDS011;6675;48.128;11.478;2024-02-21T00:10:25;6.28;;;2.42;;
13220;SDS011;6675;48.128;11.478;2024-02-21T00:12:51;6.88;;;2.30;;
13220;SDS011;6675;48.128;11.478;2024-02-21T00:15:17;7.55;;;2.72;;
13220;SDS011;6675;48.128;11.478;2024-02-21T00:17:45;5.93;;;2.75;;
13220;SDS011;6675;48.128;11.478;2024-02-21T00:20:11;5.13;;;2.53;;
13220;SDS011;6675;48.128;11.478;2024-02-21T00:22:37;5.88;;;2.85;;
13220;SDS011;6675;48.128;11.478;2024-02-21T00:25:05;5.30;;;2.35;;
13220;SDS011;6675;48.128;11.478;2024-02-21T00:27:32;5.22;;;2.20;;
13220;SDS011;6675;48.128;11.478;2024-02-21T00:29:58;5.50;;;2.25;;
13220;SDS011;6675;48.128;11.478;2024-02-21T00:32:23;6.32;;;2.40;;
13220;SDS011;6675;48.128;11.478;2024-02-21T00:34:49;6.40;;;2.65;;
13220;SDS011;6675;48.128;11.478;2024-02-21T00:37:14;6.03;;;2.60;;
13220;SDS011;6675;48.128;11.478;2024-02-21T00:39:40;4.40;;;2.22;;
13220;SDS011;6675;48.128;11.478;2024-02-21T00:42:07;5.85;;;2.33;;
13220;SDS011;6675;48.128;11.478;2024-02-21T00:44:32;5.35;;;2.20;;
13220;SDS011;6675;48.128;11.478;2024-02-21T00:46:58;4.75;;;2.17;;
13220;SDS011;6675;48.128;11.478;2024-02-21T00:49:24;6.00;;;2.58;;
13220;SDS011;6675;48.128;11.478;2024-02-21T00:51:49;5.00;;;2.13;;
13220;SDS011;6675;48.128;11.478;2024-02-21T00:54:15;4.68;;;2.05;;
13220;SDS011;6675;48.128;11.478;2024-02-21T00:56:41;7.13;;;2.47;;
13220;SDS011;6675;48.128;11.478;2024-02-21T00:59:07;3.47;;;1.98;;
13220;SDS011;6675;48.128;11.478;2024-02-21T01:01:32;3.72;;;1.90;;
13220;SDS011;6675;48.128;11.478;2024-02-21T01:03:58;4.90;;;2.13;;
13220;SDS011;6675;48.128;11.478;2024-02-21T01:06:24;4.03;;;1.70;;
13220;SDS011;6675;48.128;11.478;2024-02-21T01:08:49;6.30;;;2.28;;
13220;SDS011;6675;48.128;11.478;2024-02-21T01:11:15;4.85;;;1.98;;
13220;SDS011;6675;48.128;11.478;2024-02-21T01:13:41;4.03;;;1.98;;
13220;SDS011;6675;48.128;11.478;2024-02-21T01:16:07;4.45;;;2.00;;
13220;SDS011;6675;48.128;11.478;2024-02-21T01:18:33;5.45;;;2.00;;
13220;SDS011;6675;48.128;11.478;2024-02-21T01:20:59;3.80;;;2.00;;
13220;SDS011;6675;48.128;11.478;2024-02-21T01:23:25;4.93;;;1.90;;
13220;SDS011;6675;48.128;11.478;2024-02-21T01:25:51;3.47;;;1.92;;
13220;SDS011;6675;48.128;11.478;2024-02-21T01:28:17;4.25;;;1.65;;
13220;SDS011;6675;48.128;11.478;2024-02-21T01:30:43;3.63;;;1.90;;
13220;SDS011;6675;48.128;11.478;2024-02-21T01:33:08;5.18;;;1.85;;
13220;SDS011;6675;48.128;11.478;2024-02-21T01:35:34;3.97;;;1.73;;
13220;SDS011;6675;48.128;11.478;2024-02-21T01:38:01;3.45;;;1.80;;
13220;SDS011;6675;48.128;11.478;2024-02-21T01:40:26;4.05;;;2.00;;
13220;SDS011;6675;48.128;11.478;2024-02-21T01:42:53;4.15;;;2.00;;
13220;SDS011;6675;48.128;11.478;2024-02-21T01:45:20;4.85;;;1.90;;
13220;SDS011;6675;48.128;11.478;2024-02-21T01:47:45;4.75;;;1.70;;
13220;SDS011;6675;48.128;11.478;2024-02-21T01:50:12;4.75;;;1.80;;
13220;SDS011;6675;48.128;11.478;2024-02-21T01:52:39;6.45;;;1.83;;
13220;SDS011;6675;48.128;11.478;2024-02-21T01:55:05;3.72;;;1.70;;
13220;SDS011;6675;48.128;11.478;2024-02-21T01:57:31;4.40;;;1.45;;
13220;SDS011;6675;48.128;11.478;2024-02-21T01:59:57;4.50;;;1.92;;
13220;SDS011;6675;48.128;11.478;2024-02-21T02:02:23;6.45;;;1.95;;
13220;SDS011;6675;48.128;11.478;2024-02-21T02:04:49;5.30;;;1.67;;
13220;SDS011;6675;48.128;11.478;2024-02-21T02:07:16;3.35;;;1.70;;
13220;SDS011;6675;48.128;11.478;2024-02-21T02:09:42;5.03;;;1.60;;
13220;SDS011;6675;48.128;11.478;2024-02-21T02:12:09;3.22;;;1.80;;
13220;SDS011;6675;48.128;11.478;2024-02-21T02:14:34;4.53;;;1.63;;
13220;SDS011;6675;48.128;11.478;2024-02-21T02:17:00;3.47;;;1.58;;
13220;SDS011;6675;48.128;11.478;2024-02-21T02:19:25;3.92;;;1.48;;
13220;SDS011;6675;48.128;11.478;2024-02-21T02:21:53;3.80;;;1.67;;
13220;SDS011;6675;48.128;11.478;2024-02-21T02:24:24;3.75;;;1.38;;
13220;SDS011;6675;48.128;11.478;2024-02-21T02:26:52;3.38;;;1.75;;
13220;SDS011;6675;48.128;11.478;2024-02-21T02:29:18;3.65;;;1.55;;
13220;SDS011;6675;48.128;11.478;2024-02-21T02:31:44;3.90;;;1.60;;
13220;SDS011;6675;48.128;11.478;2024-02-21T02:34:09;3.38;;;1.50;;
13220;SDS011;6675;48.128;11.478;2024-02-21T02:36:35;3.78;;;1.45;;
13220;SDS011;6675;48.128;11.478;2024-02-21T02:39:00;2.30;;;1.33;;
13220;SDS011;6675;48.128;11.478;2024-02-21T02:41:26;3.15;;;1.38;;
13220;SDS011;6675;48.128;11.478;2024-02-21T02:43:52;2.35;;;1.33;;
13220;SDS011;6675;48.128;11.478;2024-02-21T02:46:17;5.53;;;1.98;;
13220;SDS011;6675;48.128;11.478;2024-02-21T02:48:43;4.00;;;1.65;;
13220;SDS011;6675;48.128;11.478;2024-02-21T02:51:09;3.50;;;1.50;;
13220;SDS011;6675;48.128;11.478;2024-02-21T02:53:35;3.20;;;1.33;;
13220;SDS011;6675;48.128;11.478;2024-02-21T02:56:01;3.08;;;1.40;;
13220;SDS011;6675;48.128;11.478;2024-02-21T02:58:26;4.90;;;1.50;;
13220;SDS011;6675;48.128;11.478;2024-02-21T03:00:52;3.45;;;1.48;;
13220;SDS011;6675;48.128;11.478;2024-02-21T03:03:17;4.55;;;1.55;;
13220;SDS011;6675;48.128;11.478;2024-02-21T03:05:43;4.18;;;1.35;;
13220;SDS011;6675;48.128;11.478;2024-02-21T03:08:09;5.10;;;1.83;;
13220;SDS011;6675;48.128;11.478;2024-02-21T03:10:34;3.03;;;1.70;;
13220;SDS011;6675;48.128;11.478;2024-02-21T03:13:00;3.50;;;1.80;;
13220;SDS011;6675;48.128;11.478;2024-02-21T03:15:26;2.88;;;1.58;;
13220;SDS011;6675;48.128;11.478;2024-02-21T03:17:52;5.38;;;1.50;;
13220;SDS011;6675;48.128;11.478;2024-02-21T03:20:17;3.88;;;1.85;;
13220;SDS011;6675;48.128;11.478;2024-02-21T03:22:44;4.13;;;1.65;;
13220;SDS011;6675;48.128;11.478;2024-02-21T03:25:10;4.57;;;1.80;;
13220;SDS011;6675;48.128;11.478;2024-02-21T03:27:37;4.75;;;1.60;;
13220;SDS011;6675;48.128;11.478;2024-02-21T03:30:03;3.38;;;1.40;;
13220;SDS011;6675;48.128;11.478;2024-02-21T03:32:29;2.88;;;1.70;;
13220;SDS011;6675;48.128;11.478;2024-02-21T03:34:55;3.75;;;1.58;;
13220;SDS011;6675;48.128;11.478;2024-02-21T03:37:21;3.65;;;1.60;;
13220;SDS011;6675;48.128;11.478;2024-02-21T03:39:46;3.22;;;1.52;;
13220;SDS011;6675;48.128;11.478;2024-02-21T03:42:12;4.90;;;1.75;;
13220;SDS011;6675;48.128;11.478;2024-02-21T03:44:38;3.13;;;1.40;;
13220;SDS011;6675;48.128;11.478;2024-02-21T03:47:04;2.95;;;1.33;;
13220;SDS011;6675;48.128;11.478;2024-02-21T03:49:30;4.10;;;1.60;;
13220;SDS011;6675;48.128;11.478;2024-02-21T03:51:55;3.40;;;1.23;;
13220;SDS011;6675;48.128;11.478;2024-02-21T03:54:21;3.72;;;1.65;;
13220;SDS011;6675;48.128;11.478;2024-02-21T03:56:46;3.30;;;1.27;;
13220;SDS011;6675;48.128;11.478;2024-02-21T03:59:15;3.50;;;1.42;;
13220;SDS011;6675;48.128;11.478;2024-02-21T04:01:41;4.82;;;1.55;;
13220;SDS011;6675;48.128;11.478;2024-02-21T04:04:06;4.15;;;1.50;;
13220;SDS011;6675;48.128;11.478;2024-02-21T04:06:32;2.92;;;1.42;;
13220;SDS011;6675;48.128;11.478;2024-02-21T04:08:58;4.05;;;1.50;;
13220;SDS011;6675;48.128;11.478;2024-02-21T04:11:24;3.80;;;1.60;;
13220;SDS011;6675;48.128;11.478;2024-02-21T04:13:49;3.90;;;1.27;;
13220;SDS011;6675;48.128;11.478;2024-02-21T04:16:16;4.18;;;1.38;;
13220;SDS011;6675;48.128;11.478;2024-02-21T04:18:42;3.33;;;1.45;;
13220;SDS011;6675;48.128;11.478;2024-02-21T04:21:08;3.08;;;1.73;;
13220;SDS011;6675;48.128;11.478;2024-02-21T04:23:34;3.58;;;1.60;;
13220;SDS011;6675;48.128;11.478;2024-02-21T04:26:00;5.18;;;1.70;;
13220;SDS011;6675;48.128;11.478;2024-02-21T04:28:26;2.40;;;1.25;;
13220;SDS011;6675;48.128;11.478;2024-02-21T04:30:51;3.35;;;1.42;;
13220;SDS011;6675;48.128;11.478;2024-02-21T04:33:17;5.68;;;2.05;;
13220;SDS011;6675;48.128;11.478;2024-02-21T04:35:43;5.70;;;2.13;;
13220;SDS011;6675;48.128;11.478;2024-02-21T04:38:08;4.68;;;2.47;;
13220;SDS011;6675;48.128;11.478;2024-02-21T04:40:34;6.45;;;3.20;;
13220;SDS011;6675;48.128;11.478;2024-02-21T04:43:00;4.57;;;2.10;;
13220;SDS011;6675;48.128;11.478;2024-02-21T04:45:25;4.57;;;1.92;;
13220;SDS011;6675;48.128;11.478;2024-02-21T04:47:51;4.53;;;1.90;;
13220;SDS011;6675;48.128;11.478;2024-02-21T04:50:16;4.38;;;1.98;;
13220;SDS011;6675;48.128;11.478;2024-02-21T04:52:42;3.17;;;1.55;;
13220;SDS011;6675;48.128;11.478;2024-02-21T04:55:08;2.70;;;1.58;;
13220;SDS011;6675;48.128;11.478;2024-02-21T04:57:34;5.10;;;1.65;;
13220;SDS011;6675;48.128;11.478;2024-02-21T04:59:59;3.92;;;1.55;;
13220;SDS011;6675;48.128;11.478;2024-02-21T05:02:25;5.07;;;1.88;;
13220;SDS011;6675;48.128;11.478;2024-02-21T05:04:52;4.13;;;1.60;;
13220;SDS011;6675;48.128;11.478;2024-02-21T05:07:17;3.72;;;1.50;;
13220;SDS011;6675;48.128;11.478;2024-02-21T05:09:44;2.58;;;1.30;;
13220;SDS011;6675;48.128;11.478;2024-02-21T05:12:10;3.97;;;1.35;;
13220;SDS011;6675;48.128;11.478;2024-02-21T05:14:36;2.50;;;1.50;;
13220;SDS011;6675;48.128;11.478;2024-02-21T05:17:02;3.08;;;1.42;;
13220;SDS011;6675;48.128;11.478;2024-02-21T05:19:28;3.30;;;1.55;;
13220;SDS011;6675;48.128;11.478;2024-02-21T05:21:53;2.97;;;1.60;;
13220;SDS011;6675;48.128;11.478;2024-02-21T05:24:19;2.88;;;1.42;;
13220;SDS011;6675;48.128;11.478;2024-02-21T05:26:45;3.92;;;1.60;;
13220;SDS011;6675;48.128;11.478;2024-02-21T05:29:10;2.90;;;1.38;;
13220;SDS011;6675;48.128;11.478;2024-02-21T05:34:20;2.75;;;1.52;;
13220;SDS011;6675;48.128;11.478;2024-02-21T05:36:46;3.25;;;1.40;;
13220;SDS011;6675;48.128;11.478;2024-02-21T05:39:13;2.92;;;1.38;;
13220;SDS011;6675;48.128;11.478;2024-02-21T05:41:40;4.15;;;1.55;;
13220;SDS011;6675;48.128;11.478;2024-02-21T05:44:05;3.58;;;1.70;;
13220;SDS011;6675;48.128;11.478;2024-02-21T05:46:31;3.47;;;1.58;;
13220;SDS011;6675;48.128;11.478;2024-02-21T05:48:57;3.28;;;1.50;;
13220;SDS011;6675;48.128;11.478;2024-02-21T05:51:22;3.95;;;1.30;;
13220;SDS011;6675;48.128;11.478;2024-02-21T05:53:48;4.45;;;1.40;;
13220;SDS011;6675;48.128;11.478;2024-02-21T05:56:14;3.83;;;1.20;;
13220;SDS011;6675;48.128;11.478;2024-02-21T05:58:40;3.95;;;1.80;;
13220;SDS011;6675;48.128;11.478;2024-02-21T06:01:06;2.13;;;0.90;;
13220;SDS011;6675;48.128;11.478;2024-02-21T06:03:32;2.95;;;1.35;;
13220;SDS011;6675;48.128;11.478;2024-02-21T06:05:59;3.30;;;1.10;;
13220;SDS011;6675;48.128;11.478;2024-02-21T06:08:25;3.05;;;1.60;;
13220;SDS011;6675;48.128;11.478;2024-02-21T06:10:50;3.53;;;1.75;;
13220;SDS011;6675;48.128;11.478;2024-02-21T06:13:26;2.53;;;1.30;;
13220;SDS011;6675;48.128;11.478;2024-02-21T06:15:51;3.33;;;1.40;;
13220;SDS011;6675;48.128;11.478;2024-02-21T06:18:17;3.15;;;1.13;;
13220;SDS011;6675;48.128;11.478;2024-02-21T06:20:43;6.28;;;3.15;;
13220;SDS011;6675;48.128;11.478;2024-02-21T06:23:09;13.02;;;6.85;;
13220;SDS011;6675;48.128;11.478;2024-02-21T06:25:35;7.68;;;3.00;;
13220;SDS011;6675;48.128;11.478;2024-02-21T06:28:01;3.97;;;1.48;;
13220;SDS011;6675;48.128;11.478;2024-02-21T06:30:26;3.05;;;1.52;;
13220;SDS011;6675;48.128;11.478;2024-02-21T06:32:52;3.35;;;1.55;;
13220;SDS011;6675;48.128;11.478;2024-02-21T06:35:20;3.67;;;1.70;;
13220;SDS011;6675;48.128;11.478;2024-02-21T06:37:46;2.35;;;1.02;;
13220;SDS011;6675;48.128;11.478;2024-02-21T06:40:16;2.80;;;1.25;;
13220;SDS011;6675;48.128;11.478;2024-02-21T06:42:42;2.45;;;1.27;;
13220;SDS011;6675;48.128;11.478;2024-02-21T06:45:08;3.53;;;1.08;;
13220;SDS011;6675;48.128;11.478;2024-02-21T06:47:34;2.25;;;1.00;;
13220;SDS011;6675;48.128;11.478;2024-02-21T06:49:59;3.60;;;1.23;;
13220;SDS011;6675;48.128;11.478;2024-02-21T06:52:25;2.00;;;1.00;;
13220;SDS011;6675;48.128;11.478;2024-02-21T06:54:51;2.17;;;1.20;;
13220;SDS011;6675;48.128;11.478;2024-02-21T06:57:17;2.08;;;1.27;;
13220;SDS011;6675;48.128;11.478;2024-02-21T06:59:42;2.67;;;1.33;;
13220;SDS011;6675;48.128;11.478;2024-02-21T07:02:08;2.97;;;1.05;;
13220;SDS011;6675;48.128;11.478;2024-02-21T07:04:34;2.92;;;1.13;;
13220;SDS011;6675;48.128;11.478;2024-02-21T07:07:00;2.40;;;1.38;;
13220;SDS011;6675;48.128;11.478;2024-02-21T07:09:25;2.40;;;1.00;;
13220;SDS011;6675;48.128;11.478;2024-02-21T07:11:51;3.17;;;1.20;;
13220;SDS011;6675;48.128;11.478;2024-02-21T07:14:18;2.28;;;1.08;;
13220;SDS011;6675;48.128;11.478;2024-02-21T07:16:43;4.00;;;1.17;;
13220;SDS011;6675;48.128;11.478;2024-02-21T07:19:09;2.47;;;1.13;;
13220;SDS011;6675;48.128;11.478;2024-02-21T07:21:34;1.60;;;0.90;;
13220;SDS011;6675;48.128;11.478;2024-02-21T07:24:02;3.75;;;1.20;;
13220;SDS011;6675;48.128;11.478;2024-02-21T07:26:29;7.88;;;6.93;;
13220;SDS011;6675;48.128;11.478;2024-02-21T07:28:56;3.53;;;1.35;;
13220;SDS011;6675;48.128;11.478;2024-02-21T07:31:21;2.40;;;1.10;;
13220;SDS011;6675;48.128;11.478;2024-02-21T07:33:47;2.50;;;1.20;;
13220;SDS011;6675;48.128;11.478;2024-02-21T07:36:14;2.13;;;1.20;;
13220;SDS011;6675;48.128;11.478;2024-02-21T07:38:40;2.45;;;1.20;;
13220;SDS011;6675;48.128;11.478;2024-02-21T07:41:06;3.53;;;1.00;;
13220;SDS011;6675;48.128;11.478;2024-02-21T07:43:32;2.05;;;0.85;;
13220;SDS011;6675;48.128;11.478;2024-02-21T07:45:57;2.03;;;1.00;;
13220;SDS011;6675;48.128;11.478;2024-02-21T07:48:23;2.10;;;1.08;;
13220;SDS011;6675;48.128;11.478;2024-02-21T07:50:52;1.90;;;1.10;;
13220;SDS011;6675;48.128;11.478;2024-02-21T07:53:17;1.85;;;1.00;;
13220;SDS011;6675;48.128;11.478;2024-02-21T07:55:45;2.30;;;1.13;;
13220;SDS011;6675;48.128;11.478;2024-02-21T07:58:10;2.83;;;1.00;;
13220;SDS011;6675;48.128;11.478;2024-02-21T08:00:36;1.60;;;0.80;;
13220;SDS011;6675;48.128;11.478;2024-02-21T08:03:01;1.42;;;0.70;;
13220;SDS011;6675;48.128;11.478;2024-02-21T08:05:28;3.25;;;0.88;;
13220;SDS011;6675;48.128;11.478;2024-02-21T08:07:55;2.00;;;0.77;;
13220;SDS011;6675;48.128;11.478;2024-02-21T08:10:20;1.85;;;0.75;;
13220;SDS011;6675;48.128;11.478;2024-02-21T08:12:46;3.17;;;0.70;;
13220;SDS011;6675;48.128;11.478;2024-02-21T08:15:11;1.95;;;0.75;;
13220;SDS011;6675;48.128;11.478;2024-02-21T08:17:37;2.25;;;0.88;;
13220;SDS011;6675;48.128;11.478;2024-02-21T08:20:03;1.83;;;0.80;;
13220;SDS011;6675;48.128;11.478;2024-02-21T08:22:29;1.98;;;1.25;;
13220;SDS011;6675;48.128;11.478;2024-02-21T08:24:55;1.77;;;0.90;;
13220;SDS011;6675;48.128;11.478;2024-02-21T08:27:21;1.35;;;0.90;;
13220;SDS011;6675;48.128;11.478;2024-02-21T08:29:46;1.60;;;0.80;;
13220;SDS011;6675;48.128;11.478;2024-02-21T08:32:12;1.30;;;0.80;;
13220;SDS011;6675;48.128;11.478;2024-02-21T08:34:37;1.40;;;0.73;;
13220;SDS011;6675;48.128;11.478;2024-02-21T08:37:03;1.70;;;0.98;;
13220;SDS011;6675;48.128;11.478;2024-02-21T08:39:29;1.77;;;0.70;;
13220;SDS011;6675;48.128;11.478;2024-02-21T08:41:55;2.05;;;0.90;;
13220;SDS011;6675;48.128;11.478;2024-02-21T08:44:22;1.98;;;0.95;;
13220;SDS011;6675;48.128;11.478;2024-02-21T08:46:50;1.30;;;0.90;;
13220;SDS011;6675;48.128;11.478;2024-02-21T08:49:16;1.55;;;0.93;;
13220;SDS011;6675;48.128;11.478;2024-02-21T08:51:42;3.08;;;0.93;;
13220;SDS011;6675;48.128;11.478;2024-02-21T08:54:08;2.58;;;1.13;;
13220;SDS011;6675;48.128;11.478;2024-02-21T08:56:33;2.75;;;2.03;;
13220;SDS011;6675;48.128;11.478;2024-02-21T08:59:00;4.35;;;3.20;;
13220;SDS011;6675;48.128;11.478;2024-02-21T09:01:26;2.25;;;1.40;;
13220;SDS011;6675;48.128;11.478;2024-02-21T09:03:51;2.80;;;0.95;;
13220;SDS011;6675;48.128;11.478;2024-02-21T09:06:18;4.60;;;1.10;;
13220;SDS011;6675;48.128;11.478;2024-02-21T09:08:45;1.98;;;1.10;;
13220;SDS011;6675;48.128;11.478;2024-02-21T09:11:10;2.80;;;1.25;;
13220;SDS011;6675;48.128;11.478;2024-02-21T09:13:36;5.10;;;1.00;;
13220;SDS011;6675;48.128;11.478;2024-02-21T09:16:02;2.30;;;1.13;;
13220;SDS011;6675;48.128;11.478;2024-02-21T09:18:28;3.25;;;1.20;;
13220;SDS011;6675;48.128;11.478;2024-02-21T09:20:54;2.78;;;1.00;;
13220;SDS011;6675;48.128;11.478;2024-02-21T09:23:19;2.05;;;0.90;;
13220;SDS011;6675;48.128;11.478;2024-02-21T09:25:45;2.35;;;1.00;;
13220;SDS011;6675;48.128;11.478;2024-02-21T09:28:11;2.47;;;1.30;;
13220;SDS011;6675;48.128;11.478;2024-02-21T09:30:38;1.85;;;0.95;;
13220;SDS011;6675;48.128;11.478;2024-02-21T09:33:04;2.65;;;1.38;;
13220;SDS011;6675;48.128;11.478;2024-02-21T09:35:30;2.58;;;1.20;;
13220;SDS011;6675;48.128;11.478;2024-02-21T09:37:58;4.18;;;1.00;;
13220;SDS011;6675;48.128;11.478;2024-02-21T09:40:24;1.70;;;1.10;;
13220;SDS011;6675;48.128;11.478;2024-02-21T09:42:50;2.17;;;1.08;;
13220;SDS011;6675;48.128;11.478;2024-02-21T09:45:25;2.60;;;1.20;;
13220;SDS011;6675;48.128;11.478;2024-02-21T09:47:59;2.42;;;1.00;;
13220;SDS011;6675;48.128;11.478;2024-02-21T09:50:44;2.70;;;1.30;;
13220;SDS011;6675;48.128;11.478;2024-02-21T09:53:12;2.42;;;1.13;;
13220;SDS011;6675;48.128;11.478;2024-02-21T09:55:41;2.40;;;1.00;;
13220;SDS011;6675;48.128;11.478;2024-02-21T09:58:08;3.85;;;1.30;;
13220;SDS011;6675;48.128;11.478;2024-02-21T10:00:37;3.45;;;1.00;;
13220;SDS011;6675;48.128;11.478;2024-02-21T10:03:03;1.77;;;0.93;;
13220;SDS011;6675;48.128;11.478;2024-02-21T10:05:32;1.90;;;1.00;;
13220;SDS011;6675;48.128;11.478;2024-02-21T10:08:02;1.73;;;0.90;;
13220;SDS011;6675;48.128;11.478;2024-02-21T10:10:28;2.40;;;0.85;;
13220;SDS011;6675;48.128;11.478;2024-02-21T10:12:55;2.00;;;1.00;;
13220;SDS011;6675;48.128;11.478;2024-02-21T10:15:22;3.67;;;1.00;;
13220;SDS011;6675;48.128;11.478;2024-02-21T10:17:49;1.63;;;0.90;;
13220;SDS011;6675;48.128;11.478;2024-02-21T10:20:23;1.77;;;0.93;;
13220;SDS011;6675;48.128;11.478;2024-02-21T10:22:48;2.33;;;0.90;;
13220;SDS011;6675;48.128;11.478;2024-02-21T10:25:25;2.05;;;1.00;;
13220;SDS011;6675;48.128;11.478;2024-02-21T10:27:50;2.70;;;0.73;;
13220;SDS011;6675;48.128;11.478;2024-02-21T10:30:16;1.88;;;0.90;;
13220;SDS011;6675;48.128;11.478;2024-02-21T10:32:49;2.17;;;0.88;;
13220;SDS011;6675;48.128;11.478;2024-02-21T10:35:31;2.28;;;0.95;;
13220;SDS011;6675;48.128;11.478;2024-02-21T10:37:58;1.83;;;1.00;;
13220;SDS011;6675;48.128;11.478;2024-02-21T10:40:28;1.90;;;0.93;;
13220;SDS011;6675;48.128;11.478;2024-02-21T10:42:58;2.40;;;1.00;;
13220;SDS011;6675;48.128;11.478;2024-02-21T10:45:34;1.88;;;0.82;;
13220;SDS011;6675;48.128;11.478;2024-02-21T10:48:06;2.53;;;0.90;;
13220;SDS011;6675;48.128;11.478;2024-02-21T10:50:47;3.28;;;0.95;;
13220;SDS011;6675;48.128;11.478;2024-02-21T10:53:51;2.45;;;1.02;;
13220;SDS011;6675;48.128;11.478;2024-02-21T10:56:34;2.22;;;0.70;;
13220;SDS011;6675;48.128;11.478;2024-02-21T10:59:06;3.03;;;0.95;;
13220;SDS011;6675;48.128;11.478;2024-02-21T11:01:32;1.42;;;0.70;;
13220;SDS011;6675;48.128;11.478;2024-02-21T11:04:02;2.33;;;0.70;;
13220;SDS011;6675;48.128;11.478;2024-02-21T11:06:30;2.50;;;0.80;;
13220;SDS011;6675;48.128;11.478;2024-02-21T11:09:06;2.53;;;0.93;;
13220;SDS011;6675;48.128;11.478;2024-02-21T11:11:34;2.58;;;0.70;;
13220;SDS011;6675;48.128;11.478;2024-02-21T11:14:07;1.92;;;0.80;;
13220;SDS011;6675;48.128;11.478;2024-02-21T11:16:37;4.75;;;1.00;;
13220;SDS011;6675;48.128;11.478;2024-02-21T11:19:20;2.45;;;1.23;;
13220;SDS011;6675;48.128;11.478;2024-02-21T11:21:47;2.20;;;1.00;;
13220;SDS011;6675;48.128;11.478;2024-02-21T11:24:13;2.13;;;0.80;;
13220;SDS011;6675;48.128;11.478;2024-02-21T11:26:39;2.95;;;1.00;;
13220;SDS011;6675;48.128;11.478;2024-02-21T11:29:07;2.60;;;0.82;;
13220;SDS011;6675;48.128;11.478;2024-02-21T11:31:43;1.65;;;0.80;;
13220;SDS011;6675;48.128;11.478;2024-02-21T11:34:11;1.20;;;0.60;;
13220;SDS011;6675;48.128;11.478;2024-02-21T11:36:49;1.80;;;0.68;;
13220;SDS011;6675;48.128;11.478;2024-02-21T11:41:45;1.65;;;0.80;;
13220;SDS011;6675;48.128;11.478;2024-02-21T11:44:12;2.55;;;0.70;;
13220;SDS011;6675;48.128;11.478;2024-02-21T11:46:37;2.45;;;0.70;;
13220;SDS011;6675;48.128;11.478;2024-02-21T11:49:03;1.15;;;0.60;;
13220;SDS011;6675;48.128;11.478;2024-02-21T11:51:29;1.40;;;0.70;;
13220;SDS011;6675;48.128;11.478;2024-02-21T11:53:54;1.02;;;0.65;;
13220;SDS011;6675;48.128;11.478;2024-02-21T11:56:20;1.10;;;0.55;;
13220;SDS011;6675;48.128;11.478;2024-02-21T11:58:47;1.98;;;0.60;;
13220;SDS011;6675;48.128;11.478;2024-02-21T12:01:16;1.10;;;0.50;;
13220;SDS011;6675;48.128;11.478;2024-02-21T12:03:42;1.05;;;0.52;;
13220;SDS011;6675;48.128;11.478;2024-02-21T12:06:14;1.75;;;0.50;;
13220;SDS011;6675;48.128;11.478;2024-02-21T12:08:44;1.20;;;0.52;;
13220;SDS011;6675;48.128;11.478;2024-02-21T12:11:17;1.25;;;0.60;;
13220;SDS011;6675;48.128;11.478;2024-02-21T12:13:48;1.65;;;0.68;;
13220;SDS011;6675;48.128;11.478;2024-02-21T12:16:25;1.38;;;0.50;;
13220;SDS011;6675;48.128;11.478;2024-02-21T12:18:53;0.90;;;0.50;;
13220;SDS011;6675;48.128;11.478;2024-02-21T12:21:18;1.75;;;0.57;;
13220;SDS011;6675;48.128;11.478;2024-02-21T12:23:44;1.42;;;0.50;;
13220;SDS011;6675;48.128;11.478;2024-02-21T12:26:12;2.38;;;0.60;;
13220;SDS011;6675;48.128;11.478;2024-02-21T12:28:37;2.20;;;0.60;;
13220;SDS011;6675;48.128;11.478;2024-02-21T12:31:03;1.00;;;0.50;;
13220;SDS011;6675;48.128;11.478;2024-02-21T12:33:29;1.45;;;0.50;;
13220;SDS011;6675;48.128;11.478;2024-02-21T12:35:55;1.35;;;0.52;;
13220;SDS011;6675;48.128;11.478;2024-02-21T12:38:21;2.20;;;0.60;;
13220;SDS011;6675;48.128;11.478;2024-02-21T12:40:46;1.00;;;0.50;;
13220;SDS011;6675;48.128;11.478;2024-02-21T12:43:12;1.05;;;0.50;;
13220;SDS011;6675;48.128;11.478;2024-02-21T12:45:37;1.20;;;0.52;;
13220;SDS011;6675;48.128;11.478;2024-02-21T12:48:03;1.27;;;0.70;;
13220;SDS011;6675;48.128;11.478;2024-02-21T12:50:29;1.35;;;0.50;;
13220;SDS011;6675;48.128;11.478;2024-02-21T12:52:56;1.52;;;0.73;;
13220;SDS011;6675;48.128;11.478;2024-02-21T12:55:23;1.30;;;0.60;;
13220;SDS011;6675;48.128;11.478;2024-02-21T12:57:49;2.05;;;0.70;;
13220;SDS011;6675;48.128;11.478;2024-02-21T13:00:14;1.85;;;0.73;;
13220;SDS011;6675;48.128;11.478;2024-02-21T13:02:40;1.60;;;0.70;;
13220;SDS011;6675;48.128;11.478;2024-02-21T13:05:06;2.03;;;0.60;;
13220;SDS011;6675;48.128;11.478;2024-02-21T13:07:32;1.20;;;0.60;;
13220;SDS011;6675;48.128;11.478;2024-02-21T13:09:58;1.92;;;0.70;;
13220;SDS011;6675;48.128;11.478;2024-02-21T13:12:24;2.70;;;0.80;;
13220;SDS011;6675;48.128;11.478;2024-02-21T13:14:52;1.63;;;0.52;;
13220;SDS011;6675;48.128;11.478;2024-02-21T13:17:18;2.08;;;0.80;;
13220;SDS011;6675;48.128;11.478;2024-02-21T13:19:43;1.35;;;0.60;;
13220;SDS011;6675;48.128;11.478;2024-02-21T13:22:09;1.13;;;0.60;;
13220;SDS011;6675;48.128;11.478;2024-02-21T13:24:34;2.50;;;0.70;;
13220;SDS011;6675;48.128;11.478;2024-02-21T13:27:00;3.92;;;0.68;;
13220;SDS011;6675;48.128;11.478;2024-02-21T13:29:26;1.35;;;0.65;;
13220;SDS011;6675;48.128;11.478;2024-02-21T13:31:51;2.25;;;0.80;;
13220;SDS011;6675;48.128;11.478;2024-02-21T13:34:17;1.13;;;0.50;;
13220;SDS011;6675;48.128;11.478;2024-02-21T13:36:43;2.90;;;1.73;;
13220;SDS011;6675;48.128;11.478;2024-02-21T13:39:08;2.42;;;1.02;;
13220;SDS011;6675;48.128;11.478;2024-02-21T13:41:37;2.38;;;0.90;;
13220;SDS011;6675;48.128;11.478;2024-02-21T13:44:03;0.98;;;0.52;;
13220;SDS011;6675;48.128;11.478;2024-02-21T13:46:28;1.70;;;0.50;;
13220;SDS011;6675;48.128;11.478;2024-02-21T13:49:02;1.20;;;0.60;;
13220;SDS011;6675;48.128;11.478;2024-02-21T13:53:58;0.95;;;0.57;;
13220;SDS011;6675;48.128;11.478;2024-02-21T13:56:24;1.42;;;0.60;;
13220;SDS011;6675;48.128;11.478;2024-02-21T13:58:50;2.10;;;0.50;;
13220;SDS011;6675;48.128;11.478;2024-02-21T14:01:16;1.02;;;0.40;;
13220;SDS011;6675;48.128;11.478;2024-02-21T14:03:42;1.77;;;0.60;;
13220;SDS011;6675;48.128;11.478;2024-02-21T14:06:07;1.40;;;0.50;;
13220;SDS011;6675;48.128;11.478;2024-02-21T14:08:33;1.58;;;0.60;;
13220;SDS011;6675;48.128;11.478;2024-02-21T14:10:59;1.15;;;0.50;;
13220;SDS011;6675;48.128;11.478;2024-02-21T14:13:25;1.00;;;0.47;;
13220;SDS011;6675;48.128;11.478;2024-02-21T14:15:51;5.38;;;2.40;;
13220;SDS011;6675;48.128;11.478;2024-02-21T14:18:16;2.13;;;0.93;;
13220;SDS011;6675;48.128;11.478;2024-02-21T14:20:42;2.03;;;0.70;;
13220;SDS011;6675;48.128;11.478;2024-02-21T14:23:08;1.77;;;0.70;;
13220;SDS011;6675;48.128;11.478;2024-02-21T14:25:33;1.58;;;0.60;;
13220;SDS011;6675;48.128;11.478;2024-02-21T14:27:59;0.98;;;0.43;;
13220;SDS011;6675;48.128;11.478;2024-02-21T14:30:27;1.45;;;0.40;;
13220;SDS011;6675;48.128;11.478;2024-02-21T14:32:53;1.00;;;0.50;;
13220;SDS011;6675;48.128;11.478;2024-02-21T14:35:18;0.55;;;0.30;;
13220;SDS011;6675;48.128;11.478;2024-02-21T14:37:45;1.30;;;0.40;;
13220;SDS011;6675;48.128;11.478;2024-02-21T14:40:11;1.65;;;0.20;;
13220;SDS011;6675;48.128;11.478;2024-02-21T14:42:37;1.27;;;0.30;;
13220;SDS011;6675;48.128;11.478;2024-02-21T14:45:02;0.80;;;0.28;;
13220;SDS011;6675;48.128;11.478;2024-02-21T14:47:30;1.15;;;0.52;;
13220;SDS011;6675;48.128;11.478;2024-02-21T14:49:56;1.08;;;0.30;;
13220;SDS011;6675;48.128;11.478;2024-02-21T14:52:21;1.33;;;0.80;;